createdAt,value
2022-10-29T06:30:29.839Z,16.34
2022-10-29T06:33:09.908Z,16.37
2022-10-29T06:35:46.999Z,16.34
2022-10-29T06:38:24.029Z,16.33
2022-10-29T06:41:00.671Z,16.35
2022-10-29T06:43:37.806Z,16.38
2022-10-29T06:46:14.671Z,16.39
2022-10-29T06:48:54.697Z,16.41
2022-10-29T06:51:31.440Z,16.41
2022-10-29T06:54:09.664Z,16.42
2022-10-29T06:56:46.893Z,16.43
2022-10-29T06:59:24.815Z,16.41
2022-10-29T07:02:01.833Z,16.43
2022-10-29T07:04:41.535Z,16.46
2022-10-29T07:07:18.750Z,16.47
2022-10-29T07:09:55.799Z,16.43
2022-10-29T07:12:32.647Z,16.44
2022-10-29T07:15:10.950Z,16.44
2022-10-29T07:17:57.578Z,16.46
2022-10-29T07:20:40.540Z,16.52
2022-10-29T07:23:17.953Z,16.46
2022-10-29T07:25:57.090Z,16.51
2022-10-29T07:28:36.841Z,16.45
2022-10-29T07:31:15.360Z,16.49
2022-10-29T07:33:53.539Z,16.44
2022-10-29T07:36:34.330Z,16.51
2022-10-29T07:39:11.610Z,16.49
2022-10-29T07:41:48.629Z,16.47
2022-10-29T07:44:26.878Z,16.49
2022-10-29T07:47:03.889Z,16.49
2022-10-29T07:49:41.108Z,16.52
2022-10-29T07:52:21.210Z,16.53
2022-10-29T07:55:01.037Z,16.52
2022-10-29T07:57:38.321Z,16.50
2022-10-29T08:00:17.187Z,16.57
2022-10-29T08:02:57.630Z,16.56
2022-10-29T08:05:35.648Z,16.58
2022-10-29T08:08:15.304Z,16.59
2022-10-29T08:10:52.232Z,16.61
2022-10-29T08:13:30.025Z,16.65
2022-10-29T08:16:07.233Z,16.59
2022-10-29T08:18:45.431Z,16.61
2022-10-29T08:21:22.632Z,16.58
2022-10-29T08:24:02.405Z,16.63
2022-10-29T08:26:39.242Z,16.57
2022-10-29T08:29:16.513Z,16.55
2022-10-29T08:31:53.210Z,16.52
2022-10-29T08:34:30.370Z,16.52
2022-10-29T08:37:07.020Z,16.51
2022-10-29T08:39:46.711Z,16.55
2022-10-29T08:42:48.114Z,16.56
2022-10-29T08:45:28.782Z,16.57
2022-10-29T08:48:34.161Z,16.66
2022-10-29T08:51:21.560Z,16.66
2022-10-29T08:57:07.272Z,16.76
2022-10-29T08:59:56.625Z,16.83
2022-10-29T09:02:34.089Z,16.90
2022-10-29T09:05:17.549Z,16.92
2022-10-29T09:08:15.798Z,16.92
2022-10-29T09:10:58.062Z,16.93
2022-10-29T09:13:59.025Z,16.89
2022-10-29T09:16:47.321Z,16.84
2022-10-29T09:19:43.150Z,16.81
2022-10-29T09:22:28.146Z,16.74
2022-10-29T09:25:19.749Z,16.79
2022-10-29T09:28:12.570Z,16.71
2022-10-29T09:31:06.339Z,16.66
2022-10-29T09:33:43.389Z,16.67
2022-10-29T09:36:24.270Z,16.71
2022-10-29T09:39:09.872Z,16.73
2022-10-29T09:41:53.129Z,16.68
2022-10-29T09:44:41.751Z,16.61
2022-10-29T09:47:37.181Z,16.61
2022-10-29T09:50:25.891Z,16.57
2022-10-29T09:53:03.722Z,16.57
2022-10-29T09:55:44.121Z,16.53
2022-10-29T09:58:25.242Z,16.52
2022-10-29T10:01:02.031Z,16.56
2022-10-29T10:03:46.070Z,16.53
2022-10-29T10:06:23.323Z,16.48
2022-10-29T10:09:05.196Z,16.53
2022-10-29T10:11:45.875Z,16.41
2022-10-29T10:14:26.874Z,16.36
2022-10-29T10:17:07.214Z,16.38
2022-10-29T10:19:50.503Z,16.36
2022-10-29T10:22:27.537Z,16.34
2022-10-29T10:25:04.712Z,16.28
2022-10-29T10:27:41.505Z,16.29
2022-10-29T10:30:23.300Z,16.27
2022-10-29T10:33:15.484Z,16.26
2022-10-29T10:35:57.622Z,16.28
2022-10-29T10:38:43.563Z,16.32
2022-10-29T10:41:28.432Z,16.33
2022-10-29T10:44:08.114Z,16.30
2022-10-29T10:46:47.829Z,16.35
2022-10-29T10:49:35.564Z,16.33
2022-10-29T10:52:24.963Z,16.32
2022-10-29T10:55:05.933Z,16.27
2022-10-29T10:57:57.320Z,16.28
2022-10-29T11:00:40.939Z,16.19
2022-10-29T11:06:28.344Z,16.23
2022-10-29T11:09:21.194Z,16.15
2022-10-29T11:12:04.762Z,16.22
2022-10-29T11:14:50.073Z,16.17
2022-10-29T11:17:34.528Z,16.34
2022-10-29T11:20:23.638Z,16.40
2022-10-29T11:23:18.417Z,16.46
2022-10-29T11:26:08.277Z,16.42
2022-10-29T11:28:52.094Z,16.40
2022-10-29T11:31:43.714Z,16.45
2022-10-29T11:34:26.499Z,16.54
2022-10-29T11:37:12.208Z,16.54
2022-10-29T11:39:55.453Z,16.58
2022-10-29T11:42:36.626Z,16.62
2022-10-29T11:45:20.195Z,16.60
2022-10-29T11:48:22.027Z,16.67
2022-10-29T11:51:08.395Z,16.66
2022-10-29T11:54:02.140Z,16.61
2022-10-29T11:56:56.116Z,16.70
2022-10-29T11:59:58.799Z,16.68
2022-10-29T12:03:25.261Z,16.72
2022-10-29T12:06:16.947Z,16.77
2022-10-29T12:09:08.876Z,16.76
2022-10-29T12:11:54.181Z,16.81
2022-10-29T12:14:41.936Z,16.82
2022-10-29T12:17:25.025Z,16.88
2022-10-29T12:20:09.645Z,16.94
2022-10-29T12:23:00.743Z,16.92
2022-10-29T12:25:59.092Z,16.98
2022-10-29T12:28:50.305Z,16.99
2022-10-29T12:31:39.150Z,17.01
2022-10-29T12:34:30.926Z,17.02
2022-10-29T12:37:16.909Z,16.94
2022-10-29T12:40:01.158Z,16.91
2022-10-29T12:42:38.949Z,16.83
2022-10-29T12:45:53.082Z,16.81
2022-10-29T12:48:50.302Z,16.77
2022-10-29T12:51:44.030Z,16.68
2022-10-29T12:54:35.300Z,16.76
2022-10-29T12:57:34.353Z,16.67
2022-10-29T13:00:55.014Z,16.63
2022-10-29T13:04:05.623Z,16.64
2022-10-29T13:07:01.566Z,16.66
2022-10-29T13:09:48.936Z,16.61
2022-10-29T13:13:03.242Z,16.58
2022-10-29T13:15:43.825Z,16.57
2022-10-29T13:18:31.767Z,16.57
2022-10-29T13:21:18.953Z,16.56
2022-10-29T13:24:08.354Z,16.52
2022-10-29T13:27:10.023Z,16.60
2022-10-29T13:29:57.152Z,16.55
2022-10-29T13:32:44.307Z,16.58
2022-10-29T13:35:45.754Z,16.62
2022-10-29T13:38:58.072Z,16.57
2022-10-29T13:41:45.728Z,16.49
2022-10-29T13:44:32.871Z,16.42
2022-10-29T13:47:30.499Z,16.45
2022-10-29T13:50:27.205Z,16.35
2022-10-29T13:53:19.384Z,16.27
2022-10-29T13:56:06.659Z,16.13
2022-10-29T13:58:48.517Z,16.11
2022-10-29T14:01:35.081Z,16.06
2022-10-29T14:04:28.961Z,16.06
2022-10-29T14:07:23.234Z,15.95
2022-10-29T14:10:23.164Z,15.96
2022-10-29T14:13:19.148Z,15.91
2022-10-29T14:16:14.304Z,15.88
2022-10-29T14:18:57.637Z,15.90
2022-10-29T14:21:44.643Z,15.92
2022-10-29T14:24:27.108Z,15.90
2022-10-29T14:27:12.132Z,15.88
2022-10-29T14:29:57.384Z,15.90
2022-10-29T14:32:47.441Z,15.87
2022-10-29T14:35:31.586Z,15.85
2022-10-29T14:38:14.155Z,15.84
2022-10-29T14:40:53.841Z,15.77
2022-10-29T14:43:36.388Z,15.70
2022-10-29T14:46:38.576Z,15.58
2022-10-29T14:49:23.480Z,15.56
2022-10-29T14:52:06.024Z,15.49
2022-10-29T14:54:55.014Z,15.38
2022-10-29T14:57:41.666Z,15.38
2022-10-29T15:00:30.350Z,15.30
2022-10-29T15:03:22.898Z,15.21
2022-10-29T15:06:24.445Z,15.17
2022-10-29T15:09:07.802Z,15.08
2022-10-29T15:12:03.100Z,14.97
2022-10-29T15:14:53.718Z,14.99
2022-10-29T15:17:39.642Z,14.91
2022-10-29T15:20:31.122Z,14.88
2022-10-29T15:23:09.785Z,14.85
2022-10-29T15:25:50.904Z,14.79
2022-10-29T15:28:32.140Z,14.70
2022-10-29T15:31:10.502Z,14.66
2022-10-29T15:33:49.307Z,14.67
2022-10-29T15:36:29.269Z,14.64
2022-10-29T15:39:27.117Z,14.59
2022-10-29T15:42:05.141Z,14.48
2022-10-29T15:44:43.322Z,14.45
2022-10-29T15:47:30.491Z,14.45
2022-10-29T15:50:09.241Z,14.41
2022-10-29T15:52:51.922Z,14.38
2022-10-29T15:55:34.314Z,14.39
2022-10-29T15:58:18.097Z,14.32
2022-10-29T16:00:54.881Z,14.30
2022-10-29T16:03:35.485Z,14.16
2022-10-29T16:06:15.910Z,14.18
2022-10-29T16:08:59.041Z,14.15
2022-10-29T16:11:38.050Z,14.15
2022-10-29T16:14:15.222Z,14.02
2022-10-29T16:16:52.067Z,14.05
2022-10-29T16:19:29.361Z,14.03
2022-10-29T16:22:06.274Z,13.99
2022-10-29T16:24:45.981Z,13.96
2022-10-29T16:27:22.921Z,13.92
2022-10-29T16:30:00.125Z,13.89
2022-10-29T16:32:37.000Z,13.89
2022-10-29T16:35:21.722Z,13.85
2022-10-29T16:37:59.960Z,13.79
2022-10-29T16:40:40.404Z,13.78
2022-10-29T16:43:17.192Z,13.75
2022-10-29T16:45:54.560Z,13.71
2022-10-29T16:48:32.160Z,13.67
2022-10-29T16:51:11.138Z,13.62
2022-10-29T16:53:48.859Z,13.62
2022-10-29T16:56:28.990Z,13.58
2022-10-29T16:59:06.012Z,13.56
2022-10-29T17:01:45.179Z,13.52
2022-10-29T17:04:27.071Z,13.45
2022-10-29T17:07:06.313Z,13.48
2022-10-29T17:09:44.097Z,13.45
2022-10-29T17:12:27.476Z,13.46
2022-10-29T17:15:05.164Z,13.44
2022-10-29T17:17:45.586Z,13.42
2022-10-29T17:20:24.236Z,13.40
2022-10-29T17:23:01.470Z,13.40
2022-10-29T17:25:38.191Z,13.39
2022-10-29T17:28:18.069Z,13.36
2022-10-29T17:30:55.122Z,13.37
2022-10-29T17:33:32.369Z,13.35
2022-10-29T17:36:19.380Z,13.37
2022-10-29T17:38:57.304Z,13.33
2022-10-29T17:41:34.483Z,13.32
2022-10-29T17:44:14.389Z,13.35
2022-10-29T17:46:52.001Z,13.33
2022-10-29T17:49:29.882Z,13.34
2022-10-29T17:52:07.716Z,13.36
2022-10-29T17:54:45.178Z,13.32
2022-10-29T17:57:23.605Z,13.32
2022-10-29T18:00:04.382Z,13.34
2022-10-29T18:02:45.733Z,13.34
2022-10-29T18:05:39.926Z,13.34
